Cave In Rock, Illinois
Current Conditions -  °F | °C
As of 7:15 PM on Tuesday 27 Jan 2015 (Local Time) from K5M9 Reporting Station
Overcast Overcast  
Wind Chill: 28°   Ceiling: 3500
Heat Index: 34°   Visibility: 10mi
Dew Point: 28°   Wind: 7mph
Humidity: 81%   Direction: 10°N
Pressure: 30.22"   Gusts: NA
Location:  37.47°N, 88.17°W
Report Text: K5M9 280115Z AUTO 01006KT 10SM OVC035 01/M02 A3022 RMK AO2 T00101020
Loading
Personal Weather Stations






























Interactive Weather Map New forecast layout! Learn more

10-Day Weather Forecast

Advertisements
Track Severe Weather on mobile